Time;durP1;ratioP1;P1;durP2;ratioP2;P2;SDS_P1;SDS_P2;PMS_P1;PMS_P2;Temp;Humidity;BMP_temperature;BMP_pressure;BME280_temperature;BME280_humidity;BME280_pressure;Samples;Min_cycle;Max_cycle;Signal;HPM_P1;HPM_P2
2022/01/15 00:01:50;;;;;;;;;62.00;50.25;;;;;18.85;38.27;102162.22;5080053;28;65835;-75
2022/01/15 00:04:15;;;;;;;;;67.00;51.00;;;;;18.82;38.85;102157.81;5080982;28;45223;-75
2022/01/15 00:06:41;;;;;;;;;65.50;51.50;;;;;18.80;38.93;102146.38;5081080;28;46069;-75
2022/01/15 00:09:06;;;;;;;;;61.00;48.25;;;;;18.78;38.24;102155.19;5081822;27;45243;-75
2022/01/15 00:11:32;;;;;;;;;61.00;48.50;;;;;18.77;38.41;102156.09;5081744;27;45437;-75
2022/01/15 00:14:10;;;;;;;;;61.75;48.00;;;;;18.75;38.39;102156.06;5081812;28;45262;-75
2022/01/15 00:16:47;;;;;;;;;64.50;51.00;;;;;18.75;38.29;102156.06;5082346;27;45386;-75
2022/01/15 00:19:14;;;;;;;;;66.50;51.25;;;;;18.68;38.31;102148.13;5080502;28;45472;-75
2022/01/15 00:21:39;;;;;;;;;62.25;50.25;;;;;18.72;38.67;102156.06;5081809;27;46292;-75
2022/01/15 00:24:05;;;;;;;;;61.25;47.00;;;;;18.66;38.81;102139.34;5080273;28;45365;-75
2022/01/15 00:26:31;;;;;;;;;61.75;49.50;;;;;18.64;38.69;102136.66;5080414;28;45242;-75
2022/01/15 00:28:56;;;;;;;;;63.50;50.50;;;;;18.71;38.36;102146.38;5080275;28;45200;-75
2022/01/15 00:31:25;;;;;;;;;63.00;50.50;;;;;18.71;38.59;102150.78;5043218;28;48366;-75
2022/01/15 00:33:50;;;;;;;;;60.25;47.75;;;;;18.70;38.59;102141.09;5059089;28;45815;-75
2022/01/15 00:36:16;;;;;;;;;60.75;47.50;;;;;18.67;38.59;102138.44;5043346;28;45415;-75
2022/01/15 00:38:41;;;;;;;;;67.25;52.50;;;;;18.68;38.74;102138.47;5080413;28;45370;-75
2022/01/15 00:41:07;;;;;;;;;63.50;50.50;;;;;18.67;38.96;102135.81;5063046;28;46392;-76
2022/01/15 00:43:32;;;;;;;;;58.50;46.50;;;;;18.66;38.90;102134.03;5097008;27;45355;-75
2022/01/15 00:45:58;;;;;;;;;64.00;48.50;;;;;18.69;38.46;102126.13;5081484;27;45839;-75
2022/01/15 00:48:24;;;;;;;;;62.25;48.75;;;;;18.65;38.10;102122.59;5080109;28;45334;-75
2022/01/15 00:50:50;;;;;;;;;61.25;48.25;;;;;18.67;38.64;102122.56;5063257;28;45681;-75
2022/01/15 00:53:15;;;;;;;;;66.00;50.50;;;;;18.68;38.68;102129.63;5079655;28;45243;-75
2022/01/15 00:55:41;;;;;;;;;64.50;50.25;;;;;18.71;38.72;102129.63;5080211;28;45294;-75
2022/01/15 00:58:06;;;;;;;;;62.00;47.25;;;;;18.69;38.62;102123.47;5079736;28;45666;-75
2022/01/15 01:00:32;;;;;;;;;64.75;50.50;;;;;18.73;38.64;102125.22;5062868;28;48248;-75
2022/01/15 01:02:57;;;;;;;;;65.25;50.00;;;;;18.72;38.63;102121.69;5062738;28;45778;-75
2022/01/15 01:05:23;;;;;;;;;61.00;47.50;;;;;18.67;38.26;102109.34;5062815;28;47780;-75
2022/01/15 01:07:48;;;;;;;;;64.50;50.75;;;;;18.63;38.27;102104.06;5059008;28;45249;-75
2022/01/15 01:23:52;;;;;;;;;65.25;52.00;;;;;18.64;39.13;102089.06;5072700;28;45478;-75
2022/01/15 01:26:29;;;;;;;;;63.50;50.00;;;;;18.57;38.84;102080.25;5080725;27;45436;-75
2022/01/15 01:29:07;;;;;;;;;62.75;50.00;;;;;18.55;38.81;102078.50;5079727;27;45376;-75
2022/01/15 01:31:41;;;;;;;;;68.75;52.50;;;;;18.52;38.80;102078.53;5080529;27;45577;-75
2022/01/15 01:34:10;;;;;;;;;60.50;48.00;;;;;18.53;38.91;102081.16;5079626;28;45519;-75
2022/01/15 01:37:30;;;;;;;;;63.50;51.00;;;;;18.56;38.60;102091.72;5060986;28;45355;-75
2022/01/15 01:39:24;;;;;;;;;64.00;51.00;;;;;18.54;38.84;102093.50;5062051;28;45441;-75
2022/01/15 01:42:08;;;;;;;;;60.75;48.75;;;;;18.55;39.14;102089.97;5077568;28;46227;-75
2022/01/15 01:44:39;;;;;;;;;59.00;48.00;;;;;18.58;38.91;102086.44;5079063;28;45616;-75
2022/01/15 01:47:11;;;;;;;;;68.50;52.75;;;;;18.60;38.72;102096.13;5080558;27;45183;-75
2022/01/15 01:49:38;;;;;;;;;68.50;53.00;;;;;18.62;38.99;102091.72;5079971;27;45468;-75
2022/01/15 01:52:04;;;;;;;;;64.25;50.75;;;;;18.66;38.76;102089.09;5079064;28;46083;-75
2022/01/15 01:54:30;;;;;;;;;72.00;55.00;;;;;18.66;38.56;102083.81;5079041;28;45309;-75
2022/01/15 01:56:55;;;;;;;;;69.75;53.75;;;;;18.69;38.37;102092.63;5080254;27;51185;-74
2022/01/15 01:59:21;;;;;;;;;68.25;52.50;;;;;18.70;38.58;102078.50;5079106;28;46620;-75
2022/01/15 02:01:46;;;;;;;;;69.50;53.50;;;;;18.69;38.43;102074.13;5080109;27;45558;-75
2022/01/15 02:04:12;;;;;;;;;66.00;52.50;;;;;18.68;38.17;102063.50;5061984;28;45413;-75
2022/01/15 02:06:37;;;;;;;;;66.25;52.50;;;;;18.63;38.32;102050.28;5078481;28;59285;-75
2022/01/15 02:09:06;;;;;;;;;68.25;54.50;;;;;18.68;38.31;102061.78;5060693;28;45384;-75
2022/01/15 02:11:32;;;;;;;;;65.00;50.50;;;;;18.66;38.31;102050.31;5061887;28;46057;-75
2022/01/15 02:13:57;;;;;;;;;64.75;50.00;;;;;18.71;38.40;102061.75;5065152;27;45296;-75
2022/01/15 02:16:23;;;;;;;;;68.50;53.50;;;;;18.70;38.61;102057.34;5079084;28;45305;-75
2022/01/15 02:18:55;;;;;;;;;71.00;56.50;;;;;18.71;38.43;102052.94;5080025;27;45537;-75
2022/01/15 02:23:50;;;;;;;;;68.50;54.00;;;;;18.65;38.47;102045.91;5079754;27;45233;-75
2022/01/15 02:26:25;;;;;;;;;63.25;51.25;;;;;18.73;38.80;102052.03;5078869;28;45275;-75
2022/01/15 02:28:57;;;;;;;;;61.00;47.75;;;;;18.73;38.96;102048.53;5058202;28;45728;-75
2022/01/15 02:31:23;;;;;;;;;70.50;55.25;;;;;18.72;38.34;102049.41;5058179;28;47119;-75
2022/01/15 02:33:49;;;;;;;;;67.00;53.50;;;;;18.71;38.20;102043.25;5079889;28;45221;-75
2022/01/15 02:36:19;;;;;;;;;68.50;54.50;;;;;18.69;38.32;102045.03;5061843;27;45296;-75
2022/01/15 02:38:46;;;;;;;;;65.25;51.00;;;;;18.64;38.10;102038.81;5078522;28;45482;-75
2022/01/15 02:41:11;;;;;;;;;68.00;54.75;;;;;18.63;38.13;102037.06;5082257;27;45582;-75
2022/01/15 02:43:37;;;;;;;;;69.25;54.50;;;;;18.59;38.68;102045.88;5083554;27;45326;-75
2022/01/15 02:46:19;;;;;;;;;65.25;50.50;;;;;18.54;38.37;102040.63;5082017;28;45191;-75
2022/01/15 02:48:46;;;;;;;;;67.25;53.50;;;;;18.51;38.40;102034.47;5084017;27;45722;-75
2022/01/15 02:51:12;;;;;;;;;60.25;49.75;;;;;18.52;38.14;102034.47;5081883;28;46266;-75
2022/01/15 02:53:37;;;;;;;;;65.75;52.25;;;;;18.48;38.10;102030.06;5083109;27;45529;-75
2022/01/15 02:56:03;;;;;;;;;64.50;51.50;;;;;18.45;38.05;102030.06;5081817;28;45185;-75
2022/01/15 02:58:28;;;;;;;;;66.25;51.50;;;;;18.43;38.57;102026.56;5082165;28;45559;-75
2022/01/15 03:00:54;;;;;;;;;70.00;54.50;;;;;18.41;38.67;102023.00;5064763;28;47495;-75
2022/01/15 03:03:19;;;;;;;;;64.25;50.25;;;;;18.43;38.23;102025.69;5044672;28;45329;-75
2022/01/15 03:05:45;;;;;;;;;63.75;50.75;;;;;18.39;38.06;102013.34;5044456;28;45447;-75
2022/01/15 03:08:10;;;;;;;;;68.25;52.50;;;;;18.41;38.44;102016.84;5044321;28;52987;-75
2022/01/15 03:10:36;;;;;;;;;65.75;51.00;;;;;18.39;38.09;102011.56;5076110;28;64403;-75
2022/01/15 03:13:08;;;;;;;;;65.75;51.00;;;;;18.41;38.61;102012.44;5081852;28;45412;-75
2022/01/15 03:15:34;;;;;;;;;64.25;51.00;;;;;18.42;38.53;102010.69;5081644;28;45192;-75
2022/01/15 03:17:59;;;;;;;;;63.75;51.25;;;;;18.41;37.93;102011.56;5064850;28;45410;-75
2022/01/15 03:20:25;;;;;;;;;64.25;52.00;;;;;18.43;37.96;102009.81;5064388;28;46345;-75
2022/01/15 03:22:50;;;;;;;;;66.25;52.00;;;;;18.43;38.30;102009.81;5044291;28;45473;-75
2022/01/15 03:25:16;;;;;;;;;62.75;50.25;;;;;18.40;37.87;102009.81;5060373;28;49226;-75
2022/01/15 03:27:41;;;;;;;;;65.75;51.50;;;;;18.42;37.82;102011.59;5047702;28;45497;-75
2022/01/15 03:30:08;;;;;;;;;69.75;52.25;;;;;18.40;37.87;102002.75;5064349;28;45417;-75
2022/01/15 03:32:33;;;;;;;;;66.00;51.50;;;;;18.42;38.12;102006.31;5064614;28;45300;-75
2022/01/15 03:35:02;;;;;;;;;65.50;51.75;;;;;18.40;38.29;101999.22;5082603;28;45528;-75
2022/01/15 03:37:27;;;;;;;;;66.75;51.25;;;;;18.39;38.02;101997.47;5064174;27;45263;-75
2022/01/15 03:39:53;;;;;;;;;61.75;49.50;;;;;18.37;38.31;101989.56;5082137;27;45230;-75
2022/01/15 03:42:18;;;;;;;;;63.50;50.25;;;;;18.38;38.11;101991.31;5081383;28;45436;-75
2022/01/15 03:44:47;;;;;;;;;64.50;51.75;;;;;18.36;38.50;101985.16;5081173;28;45911;-75
2022/01/15 03:47:13;;;;;;;;;62.00;50.00;;;;;18.36;38.08;101988.69;5082262;28;45396;-75
2022/01/15 03:49:38;;;;;;;;;62.75;50.50;;;;;18.34;38.11;101973.72;5064143;28;48081;-75
2022/01/15 03:52:05;;;;;;;;;65.25;50.50;;;;;18.36;38.09;101985.16;5080230;28;45453;-75
2022/01/15 03:54:30;;;;;;;;;61.50;49.25;;;;;18.33;38.16;101972.84;5046956;28;45292;-75
2022/01/15 03:56:56;;;;;;;;;62.50;49.50;;;;;18.30;38.46;101969.31;5081166;28;45331;-75
2022/01/15 03:59:21;;;;;;;;;64.75;50.50;;;;;18.34;38.29;101973.72;5063636;28;47936;-75
2022/01/15 04:01:46;;;;;;;;;62.50;49.75;;;;;18.34;37.87;101960.50;5081183;28;45322;-75
2022/01/15 04:04:12;;;;;;;;;63.00;50.75;;;;;18.31;38.42;101961.38;5059357;28;45377;-75
2022/01/15 04:06:38;;;;;;;;;62.50;49.75;;;;;18.29;38.01;101955.22;5082238;27;45234;-75
2022/01/15 04:09:03;;;;;;;;;60.00;48.75;;;;;18.31;37.79;101958.72;5063631;28;47186;-75
2022/01/15 04:11:29;;;;;;;;;64.50;50.00;;;;;18.28;37.93;101944.66;5081877;27;49121;-75
2022/01/15 04:13:54;;;;;;;;;62.25;49.50;;;;;18.29;38.42;101954.34;5080716;28;45378;-75
2022/01/15 04:16:19;;;;;;;;;62.00;49.25;;;;;18.25;38.57;101942.03;5080773;28;45397;-75
2022/01/15 04:18:45;;;;;;;;;67.00;51.50;;;;;18.28;38.53;101948.19;5046685;28;46775;-75
2022/01/15 04:21:10;;;;;;;;;64.00;50.25;;;;;18.25;38.07;101947.31;5043575;28;45232;-75
2022/01/15 04:23:36;;;;;;;;;65.75;52.00;;;;;18.27;38.21;101948.19;5075674;28;45480;-75
2022/01/15 04:26:03;;;;;;;;;70.00;52.50;;;;;18.30;38.06;101942.88;5080340;28;45347;-75
2022/01/15 04:28:29;;;;;;;;;67.00;52.25;;;;;18.33;38.40;101935.84;5045379;28;47686;-76
2022/01/15 04:30:54;;;;;;;;;67.50;52.25;;;;;18.32;38.37;101935.81;5081764;27;45370;-75
2022/01/15 04:33:20;;;;;;;;;66.00;52.00;;;;;18.36;37.96;101937.59;5063787;28;45351;-75
2022/01/15 04:35:45;;;;;;;;;65.50;51.00;;;;;18.33;37.76;101930.56;5063095;28;55331;-75
2022/01/15 04:38:12;;;;;;;;;67.50;52.50;;;;;18.35;38.11;101934.06;5081168;27;45325;-75
2022/01/15 04:40:38;;;;;;;;;69.00;53.00;;;;;18.35;38.00;101931.44;5081461;27;45554;-75
2022/01/15 04:43:03;;;;;;;;;66.00;52.25;;;;;18.35;37.87;101923.50;5063643;28;45243;-75
2022/01/15 04:45:29;;;;;;;;;64.75;50.00;;;;;18.34;37.69;101926.16;5042996;28;45538;-75
2022/01/15 04:47:54;;;;;;;;;67.75;52.00;;;;;18.32;37.76;101923.47;5058298;28;48201;-75
2022/01/15 04:50:21;;;;;;;;;68.50;54.00;;;;;18.31;37.95;101931.44;5043122;28;45235;-75
2022/01/15 04:52:46;;;;;;;;;68.00;53.50;;;;;18.31;38.08;101927.00;5075172;28;45405;-75
2022/01/15 04:55:12;;;;;;;;;69.50;53.50;;;;;18.29;38.17;101927.91;5063151;27;45587;-75
2022/01/15 04:57:38;;;;;;;;;68.25;52.00;;;;;18.30;38.36;101927.03;5044292;28;47089;-75
2022/01/15 05:00:05;;;;;;;;;67.75;55.50;;;;;18.29;38.46;101922.63;5059720;28;45327;-75
2022/01/15 05:02:30;;;;;;;;;68.25;55.00;;;;;18.28;38.04;101927.03;5060940;28;45317;-75
2022/01/15 05:04:55;;;;;;;;;72.00;56.75;;;;;18.26;38.31;101928.81;5061847;28;49644;-75
2022/01/15 05:07:22;;;;;;;;;69.25;56.00;;;;;18.25;37.80;101921.78;5060691;28;60037;-75
2022/01/15 05:09:47;;;;;;;;;69.50;55.75;;;;;18.23;38.04;101920.00;5062899;28;45263;-75
2022/01/15 05:12:39;;;;;;;;;71.50;59.00;;;;;18.24;38.27;101920.03;5063113;28;45356;-75
2022/01/15 05:15:05;;;;;;;;;72.75;63.25;;;;;18.23;37.66;101922.66;5070113;27;45264;-75
2022/01/15 05:17:30;;;;;;;;;70.75;59.25;;;;;18.19;38.28;101908.56;5043831;28;47250;-75
2022/01/15 05:19:56;;;;;;;;;72.25;56.00;;;;;18.19;38.40;101913.84;5079489;28;60825;-75
2022/01/15 05:22:21;;;;;;;;;67.00;54.75;;;;;18.16;37.92;101911.25;5080407;27;47529;-75
2022/01/15 05:24:46;;;;;;;;;71.25;54.75;;;;;18.15;38.18;101908.56;5080417;27;57374;-75
2022/01/15 05:27:12;;;;;;;;;69.25;56.75;;;;;18.17;38.20;101915.63;5078661;28;64796;-75
2022/01/15 05:29:37;;;;;;;;;69.50;56.25;;;;;18.16;38.44;101915.66;5080800;27;45211;-75
2022/01/15 05:32:03;;;;;;;;;66.50;52.75;;;;;18.19;38.71;101918.28;5080727;27;45345;-75
2022/01/15 05:34:28;;;;;;;;;71.50;56.00;;;;;18.17;38.61;101913.00;5079533;28;45258;-75
2022/01/15 05:36:54;;;;;;;;;67.00;52.00;;;;;18.21;38.04;101905.91;5080103;27;49491;-75
2022/01/15 05:39:19;;;;;;;;;69.00;52.75;;;;;18.22;38.20;101912.97;5079216;28;45403;-75
2022/01/15 05:41:44;;;;;;;;;68.25;53.00;;;;;18.22;38.35;101910.31;5042230;28;45661;-75
2022/01/15 05:44:10;;;;;;;;;66.00;52.50;;;;;18.21;38.16;101904.16;5054020;28;45406;-75
2022/01/15 05:46:35;;;;;;;;;65.50;51.25;;;;;18.26;38.28;101912.09;5078916;28;46355;-75
2022/01/15 05:49:01;;;;;;;;;67.00;52.25;;;;;18.28;38.20;101915.59;5080495;27;45448;-75
2022/01/15 05:51:29;;;;;;;;;66.50;51.50;;;;;18.29;37.85;101914.69;5059138;28;45423;-75
2022/01/15 05:54:01;;;;;;;;;65.50;52.50;;;;;18.29;38.01;101920.00;5071093;28;45870;-75
2022/01/15 05:56:27;;;;;;;;;64.50;51.25;;;;;18.28;37.82;101918.22;5078860;28;45680;-75
2022/01/15 05:58:53;;;;;;;;;64.25;49.75;;;;;18.27;37.92;101921.75;5042029;28;45893;-75
2022/01/15 06:01:18;;;;;;;;;65.50;52.25;;;;;18.29;37.91;101928.78;5061686;28;45504;-75
2022/01/15 06:03:44;;;;;;;;;64.50;50.50;;;;;18.28;37.83;101921.75;5041834;28;45548;-75
2022/01/15 06:06:09;;;;;;;;;66.25;51.00;;;;;18.26;37.86;101922.66;5041380;28;47541;-75
2022/01/15 06:08:34;;;;;;;;;64.25;51.25;;;;;18.25;37.53;101924.41;5053705;28;45264;-75
2022/01/15 06:11:00;;;;;;;;;63.50;50.75;;;;;18.20;37.52;101922.66;5078896;28;45335;-75
2022/01/15 06:13:25;;;;;;;;;65.50;51.50;;;;;18.16;37.94;101919.16;5058780;28;45536;-75
2022/01/15 06:15:51;;;;;;;;;67.50;54.00;;;;;18.15;37.86;101922.66;5080778;28;46404;-75
2022/01/15 06:18:16;;;;;;;;;64.75;50.75;;;;;18.15;38.08;101921.78;5082213;28;51676;-75
2022/01/15 06:20:41;;;;;;;;;62.25;49.75;;;;;18.15;38.21;101919.16;5082331;28;47976;-75
2022/01/15 06:23:07;;;;;;;;;65.50;51.00;;;;;18.14;37.79;101918.25;5065268;28;46869;-75
2022/01/15 06:25:32;;;;;;;;;59.25;47.50;;;;;18.08;37.95;101910.38;5083331;27;45456;-75
2022/01/15 06:27:58;;;;;;;;;65.00;50.25;;;;;18.12;38.14;101914.75;5082501;28;45349;-75
2022/01/15 06:30:23;;;;;;;;;63.75;50.75;;;;;18.14;37.65;101914.75;5083547;27;45214;-75
2022/01/15 06:32:48;;;;;;;;;68.50;52.25;;;;;18.13;37.77;101907.72;5083523;27;45532;-75
2022/01/15 06:35:16;;;;;;;;;66.25;51.75;;;;;18.10;38.08;101913.00;5083277;27;45324;-75
2022/01/15 06:37:42;;;;;;;;;64.75;50.00;;;;;18.04;37.65;101908.63;5083464;27;45592;-75
2022/01/15 06:40:08;;;;;;;;;62.25;48.75;;;;;18.06;37.77;101906.84;5061821;28;45441;-75
2022/01/15 06:42:33;;;;;;;;;62.25;48.75;;;;;18.02;38.08;101903.34;5082263;28;45554;-75
2022/01/15 06:44:59;;;;;;;;;61.00;49.50;;;;;18.04;38.14;101905.97;5083011;27;45492;-75
2022/01/15 06:47:25;;;;;;;;;62.50;49.00;;;;;18.07;37.96;101903.34;5083123;27;45407;-75
2022/01/15 06:49:50;;;;;;;;;62.75;49.75;;;;;18.11;37.71;101906.84;5064984;28;45522;-75
2022/01/15 06:52:16;;;;;;;;;62.50;48.50;;;;;18.10;38.09;101910.38;5081870;28;45505;-75
2022/01/15 06:54:41;;;;;;;;;61.75;47.50;;;;;18.09;37.86;101909.50;5082773;27;45306;-75
2022/01/15 06:57:06;;;;;;;;;64.00;50.25;;;;;18.11;38.01;101906.84;5064922;27;45246;-75
2022/01/15 06:59:32;;;;;;;;;66.75;51.00;;;;;18.08;37.73;101898.06;5081676;28;47171;-75
2022/01/15 07:01:57;;;;;;;;;62.25;49.00;;;;;18.10;38.05;101900.69;5064932;28;45417;-75
2022/01/15 07:04:23;;;;;;;;;63.00;49.00;;;;;18.07;37.73;101888.38;5055954;28;68726;-76
2022/01/15 07:06:48;;;;;;;;;63.25;49.75;;;;;18.12;37.58;101898.03;5068895;28;45176;-75
2022/01/15 07:09:14;;;;;;;;;62.25;49.75;;;;;18.06;37.28;101877.78;5078400;28;56128;-75
2022/01/15 07:11:39;;;;;;;;;61.00;48.25;;;;;18.05;37.49;101882.19;5083127;28;45414;-76
2022/01/15 07:14:05;;;;;;;;;61.00;48.75;;;;;17.97;37.36;101868.13;5081411;28;45179;-76
2022/01/15 07:16:30;;;;;;;;;62.00;49.75;;;;;18.01;37.78;101879.59;5081718;28;45343;-76
2022/01/15 07:18:55;;;;;;;;;61.75;49.50;;;;;18.00;37.56;101872.53;5081518;28;45243;-76
2022/01/15 07:21:21;;;;;;;;;65.00;51.75;;;;;17.98;37.59;101875.19;5083055;28;45479;-75
2022/01/15 07:23:54;;;;;;;;;64.75;50.25;;;;;18.02;37.28;101881.34;5080505;28;62789;-76
2022/01/15 07:26:19;;;;;;;;;61.50;48.25;;;;;17.99;37.98;101876.06;5080353;28;45538;-76
2022/01/15 07:28:45;;;;;;;;;65.75;51.25;;;;;18.01;37.39;101877.81;5082618;28;45487;-75
2022/01/15 07:31:10;;;;;;;;;65.75;51.75;;;;;18.02;37.55;101882.22;5081366;28;45736;-76
2022/01/15 07:33:36;;;;;;;;;64.50;51.75;;;;;18.03;37.73;101878.69;5060529;28;54863;-75
2022/01/15 07:36:01;;;;;;;;;64.25;50.25;;;;;18.03;37.65;101878.69;5071598;28;45409;-75
2022/01/15 07:38:26;;;;;;;;;67.25;53.75;;;;;17.96;37.93;101860.22;5060820;28;45751;-76
2022/01/15 07:40:57;;;;;;;;;67.00;53.50;;;;;18.03;38.00;101873.41;5071354;28;45574;-75
2022/01/15 07:43:23;;;;;;;;;65.50;53.00;;;;;18.04;37.76;101874.28;5061186;28;47150;-75
2022/01/15 07:45:49;;;;;;;;;62.25;49.00;;;;;17.97;38.01;101860.19;5072331;28;45260;-75
2022/01/15 07:48:14;;;;;;;;;63.50;51.25;;;;;18.00;38.01;101872.53;5080976;28;45281;-75
2022/01/15 07:50:40;;;;;;;;;66.75;51.75;;;;;17.96;37.96;101871.66;5081086;28;45349;-75
2022/01/15 07:53:05;;;;;;;;;63.25;49.25;;;;;17.95;38.00;101875.19;5081703;27;45317;-75
2022/01/15 07:55:31;;;;;;;;;69.75;53.25;;;;;18.00;37.94;101873.41;5063856;28;45216;-75
2022/01/15 07:57:56;;;;;;;;;66.75;53.00;;;;;17.95;37.81;101864.63;5059389;28;45378;-75
2022/01/15 08:00:21;;;;;;;;;69.50;55.25;;;;;17.97;37.59;101868.13;5061714;28;47733;-75
2022/01/15 08:02:47;;;;;;;;;66.00;54.75;;;;;18.01;37.76;101869.88;5061430;28;48778;-75
2022/01/15 08:05:12;;;;;;;;;69.25;54.25;;;;;18.01;37.97;101880.47;5072163;28;60607;-75
2022/01/15 08:07:40;;;;;;;;;71.25;55.50;;;;;18.01;38.28;101872.53;5081750;27;45441;-75
2022/01/15 08:10:06;;;;;;;;;71.75;56.75;;;;;18.01;37.99;101864.59;5082156;28;45464;-75
2022/01/15 08:12:33;;;;;;;;;70.25;57.50;;;;;17.99;37.78;101855.81;5063652;28;47138;-75
2022/01/15 08:15:01;;;;;;;;;71.75;57.25;;;;;18.01;37.50;101869.00;5081891;27;45309;-75
2022/01/15 08:17:26;;;;;;;;;69.75;54.75;;;;;17.98;37.34;101866.34;5044475;28;45410;-76
2022/01/15 08:19:52;;;;;;;;;70.25;57.75;;;;;17.98;37.89;101859.34;5063246;28;60312;-75
2022/01/15 08:22:17;;;;;;;;;69.25;58.75;;;;;18.00;37.54;101867.25;5046144;28;51470;-75
2022/01/15 08:24:42;;;;;;;;;71.25;55.50;;;;;18.03;37.37;101860.19;5046800;28;45495;-75
2022/01/15 08:27:08;;;;;;;;;69.00;55.25;;;;;18.06;37.73;101868.09;5080602;28;45364;-75
2022/01/15 08:29:33;;;;;;;;;67.50;53.50;;;;;18.07;37.56;101863.72;5080410;28;45507;-75
2022/01/15 08:31:59;;;;;;;;;69.75;55.00;;;;;18.06;37.31;101862.81;5063295;28;46441;-75
2022/01/15 08:34:24;;;;;;;;;67.00;53.75;;;;;18.11;37.79;101869.84;5079913;28;54784;-75
2022/01/15 08:36:50;;;;;;;;;69.25;55.75;;;;;18.12;37.41;101855.75;5080173;28;45364;-74
2022/01/15 08:39:15;;;;;;;;;67.00;52.25;;;;;18.13;37.53;101855.75;5080826;27;54278;-73
2022/01/15 08:41:48;;;;;;;;;66.50;53.75;;;;;18.17;37.28;101860.16;5080113;28;46161;-73
2022/01/15 08:44:16;;;;;;;;;63.00;50.00;;;;;18.19;37.60;101861.00;5080489;28;45448;-73
2022/01/15 08:46:42;;;;;;;;;68.00;54.25;;;;;18.22;37.56;101860.13;5081157;27;45406;-73
2022/01/15 08:49:07;;;;;;;;;67.25;51.75;;;;;18.21;37.76;101858.34;5079967;28;45571;-73
2022/01/15 08:51:33;;;;;;;;;65.75;52.25;;;;;18.26;37.68;101867.16;5079656;28;45319;-73
2022/01/15 08:53:58;;;;;;;;;70.50;55.75;;;;;18.26;37.42;101864.53;5081234;28;45254;-73
2022/01/15 08:56:24;;;;;;;;;65.50;52.00;;;;;18.28;38.04;101871.53;5079592;28;45711;-74
2022/01/15 08:58:49;;;;;;;;;69.75;54.75;;;;;18.28;36.95;101870.66;5081221;27;45436;-73
2022/01/15 09:01:15;;;;;;;;;69.50;54.75;;;;;18.29;37.51;101878.59;5079501;28;46073;-73
2022/01/15 09:03:41;;;;;;;;;65.50;51.75;;;;;18.30;37.21;101880.34;5042860;28;45943;-73
2022/01/15 09:06:07;;;;;;;;;71.25;57.50;;;;;18.33;36.97;101884.72;5061107;28;45445;-73
2022/01/15 09:08:32;;;;;;;;;67.00;51.75;;;;;18.33;37.30;101880.34;5080715;27;45305;-74
2022/01/15 09:10:58;;;;;;;;;71.00;57.25;;;;;18.37;37.42;101881.19;5080183;27;55578;-74
2022/01/15 09:13:23;;;;;;;;;62.50;49.75;;;;;18.38;36.96;101882.94;5079543;28;45257;-73
2022/01/15 09:15:50;;;;;;;;;67.25;52.50;;;;;18.41;37.55;101885.56;5062697;28;45344;-73
2022/01/15 09:18:16;;;;;;;;;71.25;55.50;;;;;18.45;37.01;101882.03;5079713;28;45333;-73
2022/01/15 09:20:41;;;;;;;;;66.50;52.75;;;;;18.48;37.42;101876.72;5080578;27;46160;-73
2022/01/15 09:23:07;;;;;;;;;65.25;51.25;;;;;18.54;37.40;101881.13;5059111;28;45220;-73
2022/01/15 09:25:33;;;;;;;;;66.50;53.25;;;;;18.55;37.31;101873.16;5059144;28;45316;-73
2022/01/15 09:30:42;;;;;;;;;68.00;53.00;;;;;18.62;37.16;101876.66;5080536;28;45881;-73
2022/01/15 09:33:08;;;;;;;;;69.75;57.00;;;;;18.67;37.01;101863.44;5058939;28;50316;-73
2022/01/15 09:35:33;;;;;;;;;73.25;58.25;;;;;18.69;36.85;101867.84;5079806;28;45502;-73
2022/01/15 09:37:59;;;;;;;;;66.50;52.50;;;;;18.71;36.54;101870.47;5079266;28;45526;-73
2022/01/15 09:40:26;;;;;;;;;66.50;54.00;;;;;18.71;36.58;101876.63;5080288;27;45629;-73
2022/01/15 09:42:52;;;;;;;;;72.25;57.25;;;;;18.74;36.05;101876.59;5062441;28;45509;-74
2022/01/15 09:45:19;;;;;;;;;72.25;55.75;;;;;18.74;36.69;101879.25;5079287;28;47127;-74
2022/01/15 09:47:44;;;;;;;;;68.25;57.00;;;;;18.81;36.25;101885.38;5078907;28;45772;-73
2022/01/15 09:50:15;;;;;;;;;66.75;55.50;;;;;18.84;36.77;101878.28;5079707;27;45432;-73
2022/01/15 09:52:40;;;;;;;;;70.25;57.50;;;;;18.86;36.12;101878.31;5080266;28;45593;-73
2022/01/15 09:55:09;;;;;;;;;70.00;54.25;;;;;18.87;36.48;101870.38;5062184;28;45370;-73
2022/01/15 09:57:35;;;;;;;;;66.25;52.50;;;;;18.86;36.25;101865.97;5062352;28;45547;-73
2022/01/15 10:00:05;;;;;;;;;70.25;56.25;;;;;18.87;36.19;101866.84;5080437;27;45236;-73
2022/01/15 10:02:31;;;;;;;;;68.00;54.00;;;;;18.86;36.30;101873.91;5078991;28;45271;-73
2022/01/15 10:04:56;;;;;;;;;68.00;54.25;;;;;18.85;36.54;101871.25;5080514;27;45352;-74
2022/01/15 10:07:27;;;;;;;;;69.50;55.25;;;;;18.84;36.31;101864.19;5078764;28;45548;-74
2022/01/15 10:09:53;;;;;;;;;66.75;54.50;;;;;18.85;36.49;101864.22;5078918;28;46178;-73
2022/01/15 10:12:28;;;;;;;;;78.50;64.50;;;;;18.85;36.39;101872.16;5062051;28;45265;-74
2022/01/15 10:14:57;;;;;;;;;74.75;62.00;;;;;18.83;36.44;101867.72;5045966;28;45358;-74
2022/01/15 10:17:25;;;;;;;;;67.75;54.75;;;;;18.80;36.66;101866.00;5078781;28;45345;-73
2022/01/15 10:19:51;;;;;;;;;73.50;57.25;;;;;18.81;36.46;101873.03;5078670;28;46320;-73
2022/01/15 10:22:18;;;;;;;;;73.50;58.00;;;;;18.82;36.63;101874.78;5079661;27;45433;-74
2022/01/15 10:25:07;;;;;;;;;71.50;56.25;;;;;18.84;36.54;101869.47;5080014;28;45229;-74
2022/01/15 10:27:42;;;;;;;;;73.50;58.00;;;;;18.85;36.61;101869.50;5079925;27;45393;-74
2022/01/15 10:30:12;;;;;;;;;78.50;63.75;;;;;18.85;36.58;101856.28;5061978;28;45438;-74
2022/01/15 10:32:39;;;;;;;;;76.00;60.00;;;;;18.86;36.53;101847.44;5078909;28;45285;-74
2022/01/15 10:35:15;;;;;;;;;75.75;61.25;;;;;18.85;36.83;101848.34;5058332;28;45254;-74
2022/01/15 10:37:54;;;;;;;;;76.25;61.00;;;;;18.86;36.55;101850.09;5075226;28;45354;-74
2022/01/15 10:40:25;;;;;;;;;75.50;58.75;;;;;18.85;36.24;101850.97;5066782;28;45339;-74
2022/01/15 10:42:58;;;;;;;;;72.50;56.25;;;;;18.85;36.48;101845.69;5078530;28;45634;-74
2022/01/15 10:45:25;;;;;;;;;80.50;64.75;;;;;18.85;36.46;101834.22;5078674;28;45220;-74
2022/01/15 10:47:53;;;;;;;;;77.50;64.75;;;;;18.82;36.79;101831.59;5079507;27;45230;-74
2022/01/15 10:50:29;;;;;;;;;77.50;62.75;;;;;18.82;36.29;101829.81;5061676;28;45650;-74
2022/01/15 10:52:56;;;;;;;;;77.75;67.75;;;;;18.82;36.10;101832.47;5061094;28;45798;-74
2022/01/15 10:55:29;;;;;;;;;77.25;62.75;;;;;18.75;35.87;101835.16;5095622;27;45228;-74
2022/01/15 10:57:56;;;;;;;;;78.25;63.75;;;;;18.62;36.28;101826.41;5079499;27;45329;-74
2022/01/15 11:00:29;;;;;;;;;72.25;61.50;;;;;18.63;36.24;101836.97;5061284;28;47083;-75
2022/01/15 11:02:58;;;;;;;;;75.00;60.75;;;;;18.64;36.71;101830.81;5081445;28;45610;-75
2022/01/15 11:05:29;;;;;;;;;77.25;66.75;;;;;18.68;36.06;101833.44;5081894;28;45368;-75
2022/01/15 11:08:16;;;;;;;;;71.75;58.00;;;;;18.71;36.77;101826.41;5081453;28;45524;-74
2022/01/15 11:11:04;;;;;;;;;78.75;72.00;;;;;18.77;36.69;101833.41;5082599;28;45355;-75
2022/01/15 11:13:37;;;;;;;;;78.50;67.50;;;;;18.77;36.20;101821.06;5081900;28;45665;-75
2022/01/15 11:16:05;;;;;;;;;80.75;69.25;;;;;18.80;36.26;101821.03;5083204;27;45224;-75
2022/01/15 11:18:35;;;;;;;;;79.75;69.50;;;;;18.85;36.09;101828.91;5082786;27;45333;-75
2022/01/15 11:21:06;;;;;;;;;79.25;66.25;;;;;18.83;36.09;101814.84;5064650;28;46441;-75
2022/01/15 11:23:32;;;;;;;;;77.25;69.00;;;;;18.84;36.16;101813.94;5081263;28;45489;-75
2022/01/15 11:26:00;;;;;;;;;77.00;68.75;;;;;18.83;36.19;101809.53;5081459;28;45464;-74
2022/01/15 11:28:29;;;;;;;;;75.50;64.00;;;;;18.84;36.27;101811.28;5081316;28;45425;-74